createdAt,value
2023-05-20T00:02:33.767Z,101639.13
2023-05-20T00:05:35.922Z,101638.72
2023-05-20T00:08:37.912Z,101637.88
2023-05-20T00:11:40.164Z,101635.63
2023-05-20T00:14:42.246Z,101643.63
2023-05-20T00:17:44.278Z,101644.06
2023-05-20T00:20:46.470Z,101639.63
2023-05-20T00:23:48.683Z,101633.72
2023-05-20T00:26:51.021Z,101629.31
2023-05-20T00:29:53.202Z,101637.28
2023-05-20T00:32:55.432Z,101634.13
2023-05-20T00:35:57.693Z,101641.84
2023-05-20T00:38:59.850Z,101635.50
2023-05-20T00:42:03.651Z,101636.53
2023-05-20T00:45:06.425Z,101639.84
2023-05-20T00:48:09.898Z,101635.81
2023-05-20T00:51:14.311Z,101632.25
2023-05-20T00:54:16.854Z,101623.41
2023-05-20T00:57:20.091Z,101632.41
2023-05-20T01:00:22.273Z,101626.97
2023-05-20T01:03:24.549Z,101630.53
2023-05-20T01:06:28.368Z,101615.44
2023-05-20T01:09:32.358Z,101623.19
2023-05-20T01:12:39.497Z,101625.09
2023-05-20T01:15:44.003Z,101631.59
2023-05-20T01:18:48.842Z,101634.97
2023-05-20T01:21:54.367Z,101628.41
2023-05-20T01:24:57.403Z,101628.78
2023-05-20T01:28:01.853Z,101630.28
2023-05-20T01:31:10.900Z,101634.06
2023-05-20T01:34:15.728Z,101630.00
2023-05-20T01:37:19.650Z,101621.59
2023-05-20T01:40:23.777Z,101628.53
2023-05-20T01:43:27.937Z,101628.94
2023-05-20T01:46:34.665Z,101629.31
2023-05-20T01:49:37.827Z,101627.88
2023-05-20T01:52:40.539Z,101622.63
2023-05-20T01:55:42.656Z,101627.88
2023-05-20T01:58:44.779Z,101632.41
2023-05-20T02:01:46.936Z,101625.47
2023-05-20T02:04:52.171Z,101626.78
2023-05-20T02:07:54.293Z,101633.72
2023-05-20T02:10:56.478Z,101630.16
2023-05-20T02:13:58.560Z,101629.31
2023-05-20T02:17:01.289Z,101637.69
2023-05-20T02:20:06.400Z,101636.66
2023-05-20T02:23:09.557Z,101632.41
2023-05-20T02:26:12.181Z,101633.09
2023-05-20T02:29:14.202Z,101638.72
2023-05-20T02:32:16.775Z,101641.44
2023-05-20T02:35:18.740Z,101641.63
2023-05-20T02:38:22.107Z,101643.69
2023-05-20T02:41:24.299Z,101628.16
2023-05-20T02:44:26.478Z,101643.69
2023-05-20T02:47:30.170Z,101635.97
2023-05-20T02:50:32.246Z,101636.38
2023-05-20T02:53:34.341Z,101647.84
2023-05-20T02:56:36.617Z,101645.78
2023-05-20T02:59:39.171Z,101654.59
2023-05-20T03:02:41.320Z,101655.66
2023-05-20T03:05:46.104Z,101664.94
2023-05-20T03:08:48.232Z,101657.16
2023-05-20T03:11:50.544Z,101659.03
2023-05-20T03:14:55.579Z,101659.41
2023-05-20T03:17:58.202Z,101655.66
2023-05-20T03:21:00.535Z,101659.28
2023-05-20T03:24:02.737Z,101659.09
2023-05-20T03:27:05.049Z,101665.78
2023-05-20T03:30:09.796Z,101669.59
2023-05-20T03:33:12.109Z,101665.00
2023-05-20T03:36:14.534Z,101662.22
2023-05-20T03:39:16.679Z,101672.91
2023-05-20T03:42:20.554Z,101662.22
2023-05-20T03:45:22.856Z,101668.38
2023-05-20T03:48:35.107Z,101672.59
2023-05-20T03:51:37.308Z,101673.22
2023-05-20T03:54:44.821Z,101675.97
2023-05-20T03:57:47.268Z,101669.28
2023-05-20T04:00:49.915Z,101675.84
2023-05-20T04:03:52.183Z,101680.38
2023-05-20T04:06:54.707Z,101678.53
2023-05-20T04:09:56.892Z,101681.50
2023-05-20T04:12:59.100Z,101674.84
2023-05-20T04:16:02.110Z,101681.19
2023-05-20T04:19:05.366Z,101680.81
2023-05-20T04:22:07.636Z,101686.44
2023-05-20T04:25:10.096Z,101678.25
2023-05-20T04:28:14.251Z,101686.50
2023-05-20T04:31:17.608Z,101684.63
2023-05-20T04:34:20.499Z,101687.34
2023-05-20T04:37:22.761Z,101680.66
2023-05-20T04:40:25.454Z,101686.94
2023-05-20T04:43:30.408Z,101683.84
2023-05-20T04:46:34.107Z,101693.69
2023-05-20T04:49:36.943Z,101680.94
2023-05-20T04:52:39.721Z,101701.81
2023-05-20T04:55:42.003Z,101691.13
2023-05-20T04:58:44.401Z,101688.41
2023-05-20T05:01:46.454Z,101704.38
2023-05-20T05:04:49.451Z,101691.38
2023-05-20T05:07:55.301Z,101690.75
2023-05-20T05:11:10.495Z,101696.00
2023-05-20T05:14:16.008Z,101698.72
2023-05-20T05:17:20.485Z,101695.22
2023-05-20T05:20:22.955Z,101691.28
2023-05-20T05:23:25.432Z,101697.00
2023-05-20T05:26:28.351Z,101693.28
2023-05-20T05:29:31.093Z,101686.38
2023-05-20T05:32:34.038Z,101689.63
2023-05-20T05:35:36.430Z,101684.38
2023-05-20T05:38:39.197Z,101690.28
2023-05-20T05:41:41.987Z,101689.69
2023-05-20T05:44:44.841Z,101689.72
2023-05-20T05:47:47.043Z,101691.19
2023-05-20T05:50:50.068Z,101691.19
2023-05-20T05:53:53.918Z,101694.75
2023-05-20T05:56:59.254Z,101704.47
2023-05-20T06:00:04.895Z,101701.69
2023-05-20T06:03:20.146Z,101696.06
2023-05-20T06:06:23.637Z,101702.34
2023-05-20T06:09:25.755Z,101694.97
2023-05-20T06:12:28.392Z,101691.91
2023-05-20T06:15:30.522Z,101690.44
2023-05-20T06:18:32.896Z,101681.28
2023-05-20T06:21:39.272Z,101681.09
2023-05-20T06:24:41.660Z,101676.88
2023-05-20T06:27:43.817Z,101683.09
2023-05-20T06:30:51.330Z,101685.50
2023-05-20T06:33:53.445Z,101683.63
2023-05-20T06:36:57.478Z,101694.50
2023-05-20T06:39:59.530Z,101695.28
2023-05-20T06:43:01.974Z,101689.75
2023-05-20T06:46:36.272Z,101702.16
2023-05-20T06:49:47.502Z,101707.16
2023-05-20T06:52:52.690Z,101710.09
2023-05-20T06:55:58.042Z,101696.44
2023-05-20T06:59:01.371Z,101707.41
2023-05-20T07:02:05.874Z,101700.53
2023-05-20T07:05:10.947Z,101695.13
2023-05-20T07:08:13.111Z,101693.19
2023-05-20T07:11:16.328Z,101697.31
2023-05-20T07:14:20.126Z,101700.38
2023-05-20T07:17:30.316Z,101697.00
2023-05-20T07:20:32.562Z,101696.03
2023-05-20T07:23:42.024Z,101701.00
2023-05-20T07:26:47.174Z,101694.31
2023-05-20T07:29:57.264Z,101686.91
2023-05-20T07:33:00.090Z,101695.81
2023-05-20T07:36:02.446Z,101694.00
2023-05-20T07:39:16.920Z,101692.63
2023-05-20T07:42:20.374Z,101696.66
2023-05-20T07:45:25.338Z,101695.25
2023-05-20T07:48:33.322Z,101692.25
2023-05-20T07:51:35.649Z,101690.56
2023-05-20T07:54:37.824Z,101690.06
2023-05-20T07:57:41.667Z,101691.91
2023-05-20T08:00:45.913Z,101685.66
2023-05-20T08:03:54.954Z,101688.41
2023-05-20T08:06:59.328Z,101686.56
2023-05-20T08:10:15.309Z,101677.22
2023-05-20T08:13:19.303Z,101676.72
2023-05-20T08:16:22.118Z,101673.31
2023-05-20T08:19:24.630Z,101687.88
2023-05-20T08:22:26.978Z,101683.28
2023-05-20T08:25:30.203Z,101678.13
2023-05-20T08:28:33.449Z,101674.56
2023-05-20T08:31:36.157Z,101681.81
2023-05-20T08:34:38.469Z,101682.22
2023-05-20T08:37:41.673Z,101680.34
2023-05-20T08:40:44.461Z,101669.47
2023-05-20T08:43:47.303Z,101680.19
2023-05-20T08:46:52.159Z,101686.22
2023-05-20T08:49:54.662Z,101685.88
2023-05-20T08:52:56.821Z,101681.09
2023-05-20T08:56:03.848Z,101690.41
2023-05-20T08:59:09.015Z,101685.91
2023-05-20T09:02:13.550Z,101682.41
2023-05-20T09:05:15.948Z,101677.13
2023-05-20T09:08:18.296Z,101672.88
2023-05-20T09:11:23.126Z,101676.25
2023-05-20T09:14:27.400Z,101669.91
2023-05-20T09:17:29.628Z,101684.47
2023-05-20T09:20:34.637Z,101670.47
2023-05-20T09:23:39.484Z,101669.31
2023-05-20T09:26:41.558Z,101657.94
2023-05-20T09:29:46.471Z,101653.91
2023-05-20T09:33:00.243Z,101656.56
2023-05-20T09:36:08.713Z,101660.75
2023-05-20T09:39:17.335Z,101648.09
2023-05-20T09:42:26.483Z,101650.94
2023-05-20T09:45:28.878Z,101651.91
2023-05-20T09:48:34.367Z,101645.81
2023-05-20T09:51:37.160Z,101637.94
2023-05-20T09:54:39.597Z,101635.91
2023-05-20T09:57:42.403Z,101634.66
2023-05-20T10:00:44.643Z,101622.22
2023-05-20T10:03:47.094Z,101614.59
2023-05-20T10:07:15.390Z,101614.00
2023-05-20T10:10:26.455Z,101607.88
2023-05-20T10:13:37.392Z,101598.41
2023-05-20T10:17:08.008Z,101599.63
2023-05-20T10:20:12.264Z,101593.69
2023-05-20T10:23:24.681Z,101595.16
2023-05-20T10:26:38.576Z,101594.06
2023-05-20T10:29:53.973Z,101577.84
2023-05-20T10:33:01.222Z,101579.50
2023-05-20T10:36:03.954Z,101566.84
2023-05-20T10:39:06.053Z,101573.19
2023-05-20T10:42:12.057Z,101568.28
2023-05-20T10:45:26.652Z,101554.53
2023-05-20T10:48:42.515Z,101549.03
2023-05-20T10:51:46.807Z,101555.75
2023-05-20T10:54:57.396Z,101539.91
2023-05-20T10:58:00.021Z,101542.19
2023-05-20T11:01:03.655Z,101540.41
2023-05-20T11:04:06.929Z,101533.63
2023-05-20T11:07:09.527Z,101523.47
2023-05-20T11:10:13.030Z,101530.88
2023-05-20T11:13:15.710Z,101515.47
2023-05-20T11:16:17.908Z,101508.88
2023-05-20T11:19:20.640Z,101496.00
2023-05-20T11:22:23.344Z,101495.91
2023-05-20T11:25:25.506Z,101484.69
2023-05-20T11:28:27.648Z,101492.06
2023-05-20T11:31:29.775Z,101476.81
2023-05-20T11:34:36.951Z,101465.34
2023-05-20T11:37:39.136Z,101473.84
2023-05-20T11:40:50.587Z,101458.28
2023-05-20T11:44:00.635Z,101453.69
2023-05-20T11:47:03.954Z,101449.94
2023-05-20T11:50:06.894Z,101441.78
2023-05-20T11:53:11.310Z,101442.25
2023-05-20T11:56:14.894Z,101439.44
2023-05-20T11:59:17.021Z,101428.06
2023-05-20T12:02:19.253Z,101427.94
2023-05-20T12:05:21.547Z,101421.59
2023-05-20T12:08:23.629Z,101428.50
2023-05-20T12:11:26.046Z,101437.38
2023-05-20T12:14:28.119Z,101425.75
2023-05-20T12:17:30.360Z,101436.41
2023-05-20T12:20:34.679Z,101433.81
2023-05-20T12:23:36.975Z,101448.97
2023-05-20T12:26:39.178Z,101427.44
2023-05-20T12:29:41.429Z,101416.59
2023-05-20T12:32:44.254Z,101419.56
2023-05-20T12:35:46.968Z,101409.53
2023-05-20T12:38:49.219Z,101403.91
2023-05-20T12:41:51.584Z,101397.88
2023-05-20T12:44:53.654Z,101397.44
2023-05-20T12:47:57.674Z,101397.09
2023-05-20T12:51:00.344Z,101396.13
2023-05-20T12:54:02.424Z,101393.88
2023-05-20T12:57:05.471Z,101397.44
2023-05-20T13:00:08.720Z,101427.56
2023-05-20T13:03:11.626Z,101436.63
2023-05-20T13:06:13.859Z,101433.91
2023-05-20T13:09:16.180Z,101407.88
2023-05-20T13:12:18.386Z,101404.13
2023-05-20T13:15:20.492Z,101393.16
2023-05-20T13:18:22.695Z,101382.88
2023-05-20T13:21:24.691Z,101377.84
2023-05-20T13:24:27.349Z,101371.59
2023-05-20T13:27:29.536Z,101376.13
2023-05-20T13:30:32.810Z,101363.75
2023-05-20T13:33:35.150Z,101363.16
2023-05-20T13:36:37.176Z,101355.44
2023-05-20T13:39:39.247Z,101361.28
2023-05-20T13:42:41.321Z,101353.44
2023-05-20T13:45:43.547Z,101360.94
2023-05-20T13:48:45.827Z,101342.97
2023-05-20T13:51:48.031Z,101351.97
2023-05-20T13:55:39.904Z,101357.22
2023-05-20T13:58:45.286Z,101342.41
2023-05-20T14:01:47.618Z,101340.75
2023-05-20T14:04:49.841Z,101336.09
2023-05-20T14:07:52.014Z,101337.06
2023-05-20T14:10:55.561Z,101333.03
2023-05-20T14:14:00.527Z,101340.56
2023-05-20T14:17:02.638Z,101333.16
2023-05-20T14:20:06.733Z,101330.28
2023-05-20T14:23:09.358Z,101337.28
2023-05-20T14:26:12.579Z,101369.88
2023-05-20T14:29:15.442Z,101374.84
2023-05-20T14:32:17.842Z,101368.13
2023-05-20T14:35:20.277Z,101367.97
2023-05-20T14:38:22.626Z,101374.63
2023-05-20T14:41:24.761Z,101361.44
2023-05-20T14:44:26.913Z,101366.84
2023-05-20T14:47:29.306Z,101352.19
2023-05-20T14:50:31.782Z,101358.25
2023-05-20T14:53:37.078Z,101364.38
2023-05-20T14:56:39.109Z,101352.69
2023-05-20T14:59:41.350Z,101355.97
2023-05-20T15:02:43.437Z,101355.38
2023-05-20T15:05:45.741Z,101352.81
2023-05-20T15:08:48.747Z,101349.88
2023-05-20T15:11:51.074Z,101358.13
2023-05-20T15:14:54.710Z,101367.84
2023-05-20T15:17:56.920Z,101351.72
2023-05-20T15:21:00.953Z,101352.91
2023-05-20T15:24:03.304Z,101351.00
2023-05-20T15:27:05.850Z,101352.09
2023-05-20T15:30:08.563Z,101359.44
2023-05-20T15:33:11.020Z,101358.03
2023-05-20T15:36:13.190Z,101349.66
2023-05-20T15:39:15.464Z,101349.16
2023-05-20T15:42:18.815Z,101353.09
2023-05-20T15:45:21.184Z,101340.53
2023-05-20T15:48:23.838Z,101344.13
2023-05-20T15:51:26.315Z,101344.78
2023-05-20T15:54:29.899Z,101343.06
2023-05-20T15:57:32.276Z,101344.44
2023-05-20T16:00:34.891Z,101337.50
2023-05-20T16:03:37.440Z,101341.75
2023-05-20T16:06:40.161Z,101346.41
2023-05-20T16:09:42.994Z,101349.69
2023-05-20T16:12:46.594Z,101349.31
2023-05-20T16:15:50.144Z,101353.13
2023-05-20T16:18:53.157Z,101348.72
2023-05-20T16:21:55.278Z,101348.53
2023-05-20T16:24:57.332Z,101347.09
2023-05-20T16:28:02.648Z,101353.66
2023-05-20T16:31:06.506Z,101354.47
2023-05-20T16:34:08.646Z,101354.63
2023-05-20T16:37:10.996Z,101366.13
2023-05-20T16:40:13.434Z,101358.41
2023-05-20T16:43:15.600Z,101363.94
2023-05-20T16:46:17.887Z,101365.25
2023-05-20T16:49:22.460Z,101373.06
2023-05-20T16:52:24.956Z,101369.75
2023-05-20T16:55:27.315Z,101370.19
2023-05-20T16:58:31.659Z,101379.69
2023-05-20T17:01:36.115Z,101388.34
2023-05-20T17:04:52.361Z,101381.06
2023-05-20T17:08:00.428Z,101390.31
2023-05-20T17:11:05.227Z,101391.44
2023-05-20T17:14:07.329Z,101384.97
2023-05-20T17:17:15.175Z,101379.50
2023-05-20T17:20:17.671Z,101382.94
2023-05-20T17:23:23.733Z,101381.06
2023-05-20T17:26:29.870Z,101386.75
2023-05-20T17:29:39.884Z,101386.75
2023-05-20T17:32:42.052Z,101385.72
2023-05-20T17:35:49.384Z,101384.00
2023-05-20T17:38:51.791Z,101390.34
2023-05-20T17:41:53.932Z,101382.13
2023-05-20T17:44:56.351Z,101385.75
2023-05-20T17:47:58.578Z,101390.19
2023-05-20T17:54:20.948Z,101396.38
2023-05-20T17:57:23.033Z,101390.94
2023-05-20T18:00:27.216Z,101392.25
2023-05-20T18:03:29.701Z,101394.13
2023-05-20T18:06:34.752Z,101390.50
2023-05-20T18:09:37.021Z,101399.53
2023-05-20T18:13:04.308Z,101399.91
2023-05-20T18:16:09.285Z,101405.41
2023-05-20T18:19:12.995Z,101409.78
2023-05-20T18:22:16.541Z,101410.97
2023-05-20T18:25:22.732Z,101412.56
2023-05-20T18:28:41.086Z,101413.88
2023-05-20T18:31:45.084Z,101417.56
2023-05-20T18:34:47.677Z,101423.34
2023-05-20T18:37:52.283Z,101416.34
2023-05-20T18:40:56.942Z,101423.78
2023-05-20T18:43:59.065Z,101434.78
2023-05-20T18:47:03.936Z,101428.91
2023-05-20T18:50:11.015Z,101424.91
2023-05-20T18:53:14.125Z,101416.03
2023-05-20T18:56:19.945Z,101412.72
2023-05-20T18:59:25.136Z,101412.13
2023-05-20T19:02:28.925Z,101418.06
2023-05-20T19:05:33.484Z,101418.69
2023-05-20T19:08:36.606Z,101421.03
2023-05-20T19:11:38.717Z,101411.75
2023-05-20T19:14:41.739Z,101407.56
2023-05-20T19:17:45.141Z,101399.41
2023-05-20T19:20:47.187Z,101409.34
2023-05-20T19:23:50.418Z,101413.81
2023-05-20T19:26:52.679Z,101394.97
2023-05-20T19:30:00.837Z,101404.53
2023-05-20T19:33:13.732Z,101401.81
2023-05-20T19:36:17.482Z,101396.63
2023-05-20T19:39:21.246Z,101393.25
2023-05-20T19:42:25.142Z,101394.47
2023-05-20T19:45:27.726Z,101394.31
2023-05-20T19:48:30.965Z,101391.19
2023-05-20T19:51:35.752Z,101395.19
2023-05-20T19:54:37.877Z,101395.63
2023-05-20T19:57:41.345Z,101404.91
2023-05-20T20:00:45.682Z,101388.19
2023-05-20T20:03:51.096Z,101390.19
2023-05-20T20:06:55.272Z,101385.53
2023-05-20T20:09:58.420Z,101380.78
2023-05-20T20:13:03.965Z,101386.31
2023-05-20T20:16:11.678Z,101382.34
2023-05-20T20:19:48.895Z,101386.56
2023-05-20T20:23:13.867Z,101384.94
2023-05-20T20:26:23.641Z,101392.72
2023-05-20T20:29:26.474Z,101388.94
2023-05-20T20:32:29.181Z,101386.84
2023-05-20T20:35:32.447Z,101391.09
2023-05-20T20:38:34.656Z,101377.44
2023-05-20T20:41:39.077Z,101383.50
2023-05-20T20:44:58.172Z,101381.00
2023-05-20T20:48:05.713Z,101378.47
2023-05-20T20:51:09.170Z,101376.59
2023-05-20T20:54:11.437Z,101378.25
2023-05-20T20:57:14.043Z,101371.94
2023-05-20T21:00:17.713Z,101373.88
2023-05-20T21:03:24.125Z,101375.97
2023-05-20T21:06:26.349Z,101368.88
2023-05-20T21:09:29.007Z,101370.34
2023-05-20T21:12:31.060Z,101378.31
2023-05-20T21:15:33.197Z,101377.88
2023-05-20T21:18:35.625Z,101379.38
2023-05-20T21:21:39.893Z,101373.91
2023-05-20T21:24:43.444Z,101369.50
2023-05-20T21:27:46.468Z,101375.41
2023-05-20T21:30:48.748Z,101393.50
2023-05-20T21:33:51.001Z,101388.03
2023-05-20T21:36:53.183Z,101385.53
2023-05-20T21:39:55.296Z,101396.06
2023-05-20T21:42:57.458Z,101387.22
2023-05-20T21:45:59.983Z,101393.75
2023-05-20T21:49:04.837Z,101393.78
2023-05-20T21:52:07.686Z,101391.47
2023-05-20T21:55:11.385Z,101393.34
2023-05-20T21:58:15.221Z,101384.34
2023-05-20T22:01:17.345Z,101390.88
2023-05-20T22:04:19.816Z,101387.91
2023-05-20T22:07:22.319Z,101382.44
2023-05-20T22:10:26.948Z,101378.91
2023-05-20T22:13:31.110Z,101374.28
2023-05-20T22:16:35.456Z,101381.03
2023-05-20T22:19:39.334Z,101377.88
2023-05-20T22:22:41.435Z,101375.78
2023-05-20T22:25:43.557Z,101374.47
2023-05-20T22:28:46.284Z,101378.94
2023-05-20T22:31:48.582Z,101375.16
2023-05-20T22:34:53.705Z,101380.81
2023-05-20T22:37:57.520Z,101379.94
2023-05-20T22:40:59.682Z,101383.31
2023-05-20T22:44:01.976Z,101385.03
2023-05-20T22:47:04.222Z,101380.41
2023-05-20T22:50:07.586Z,101383.13
2023-05-20T22:53:09.746Z,101382.50
2023-05-20T22:56:11.900Z,101377.25
2023-05-20T22:59:14.140Z,101381.47
2023-05-20T23:02:16.332Z,101375.16
2023-05-20T23:05:18.424Z,101394.06
2023-05-20T23:08:21.286Z,101396.16
2023-05-20T23:11:24.050Z,101395.31
2023-05-20T23:14:26.402Z,101399.75
2023-05-20T23:17:28.593Z,101389.00
2023-05-20T23:20:30.741Z,101398.69
2023-05-20T23:23:32.878Z,101386.09
2023-05-20T23:26:37.844Z,101391.56
2023-05-20T23:29:40.559Z,101382.50
2023-05-20T23:32:42.857Z,101383.56
2023-05-20T23:35:45.037Z,101384.81
2023-05-20T23:38:47.357Z,101386.50
2023-05-20T23:41:49.522Z,101384.59
2023-05-20T23:44:52.245Z,101397.63
2023-05-20T23:47:55.782Z,101388.38
2023-05-20T23:50:58.197Z,101392.59
2023-05-20T23:54:00.890Z,101387.31
2023-05-20T23:57:03.071Z,101380.16
